createdAt,value
2022-12-12T00:01:17.127Z,18.47
2022-12-12T00:03:44.438Z,17.77
2022-12-12T00:06:12.965Z,17.83
2022-12-12T00:08:40.059Z,19.37
2022-12-12T00:11:07.533Z,18.73
2022-12-12T00:13:34.930Z,17.93
2022-12-12T00:16:02.066Z,20.37
2022-12-12T00:18:29.223Z,19.23
2022-12-12T00:20:56.967Z,20.93
2022-12-12T00:23:25.855Z,19.03
2022-12-12T00:25:56.092Z,18.50
2022-12-12T00:28:23.247Z,20.50
2022-12-12T00:30:50.386Z,19.87
2022-12-12T00:33:17.483Z,16.60
2022-12-12T00:35:44.870Z,18.50
2022-12-12T00:38:11.963Z,17.23
2022-12-12T00:40:40.404Z,18.37
2022-12-12T00:43:07.491Z,17.27
2022-12-12T00:45:34.677Z,18.40
2022-12-12T00:48:01.749Z,18.70
2022-12-12T00:50:28.938Z,20.53
2022-12-12T00:52:56.270Z,18.90
2022-12-12T00:55:23.520Z,18.27
2022-12-12T00:57:51.969Z,18.83
2022-12-12T01:00:19.344Z,18.00
2022-12-12T01:02:46.477Z,19.63
2022-12-12T01:05:14.113Z,21.50
2022-12-12T01:07:41.516Z,20.00
2022-12-12T01:10:09.460Z,19.03
2022-12-12T01:12:36.580Z,17.83
2022-12-12T01:15:05.949Z,19.80
2022-12-12T01:17:33.053Z,20.27
2022-12-12T01:20:00.141Z,19.33
2022-12-12T01:22:27.244Z,17.90
2022-12-12T01:24:54.339Z,18.03
2022-12-12T01:27:21.423Z,17.60
2022-12-12T01:29:48.544Z,18.57
2022-12-12T01:32:16.983Z,18.43
2022-12-12T01:34:44.103Z,20.20
2022-12-12T01:37:11.187Z,18.20
2022-12-12T01:39:38.295Z,17.53
2022-12-12T01:42:05.484Z,18.80
2022-12-12T01:44:40.193Z,18.33
2022-12-12T01:47:07.293Z,18.93
2022-12-12T01:49:35.943Z,21.47
2022-12-12T01:52:07.058Z,20.33
2022-12-12T01:54:35.499Z,18.83
2022-12-12T01:57:06.419Z,16.37
2022-12-12T01:59:34.415Z,18.03
2022-12-12T02:02:01.618Z,18.27
2022-12-12T02:04:28.976Z,20.13
2022-12-12T02:06:57.796Z,20.10
2022-12-12T02:09:25.271Z,19.63
2022-12-12T02:11:53.895Z,17.30
2022-12-12T02:14:23.186Z,18.97
2022-12-12T02:16:54.916Z,18.60
2022-12-12T02:19:34.737Z,17.50
2022-12-12T02:22:06.118Z,17.23
2022-12-12T02:24:43.692Z,18.67
2022-12-12T02:27:25.680Z,17.27
2022-12-12T02:30:07.770Z,18.97
2022-12-12T02:32:41.256Z,19.50
2022-12-12T02:35:12.528Z,19.03
2022-12-12T02:37:41.897Z,19.80
2022-12-12T02:40:14.594Z,17.97
2022-12-12T02:42:44.251Z,19.90
2022-12-12T02:45:15.291Z,18.30
2022-12-12T02:47:47.022Z,18.30
2022-12-12T02:50:16.970Z,20.67
2022-12-12T02:52:44.534Z,18.97
2022-12-12T02:55:11.962Z,19.83
2022-12-12T02:57:39.205Z,17.77
2022-12-12T03:00:08.487Z,18.17
2022-12-12T03:02:53.471Z,18.70
2022-12-12T03:05:29.114Z,19.30
2022-12-12T03:08:01.306Z,18.90
2022-12-12T03:10:36.033Z,19.80
2022-12-12T03:13:07.907Z,19.57
2022-12-12T03:15:39.737Z,18.10
2022-12-12T03:18:14.154Z,16.40
2022-12-12T03:20:45.821Z,21.60
2022-12-12T03:23:15.174Z,18.87
2022-12-12T03:25:47.693Z,20.37
2022-12-12T03:28:17.254Z,18.00
2022-12-12T03:30:46.277Z,19.87
2022-12-12T03:33:17.220Z,19.57
2022-12-12T03:35:47.444Z,19.93
2022-12-12T03:38:15.798Z,20.50
2022-12-12T03:40:46.374Z,19.90
2022-12-12T03:43:15.447Z,20.20
2022-12-12T03:45:46.044Z,18.17
2022-12-12T03:48:14.230Z,19.33
2022-12-12T03:50:44.653Z,19.83
2022-12-12T03:53:17.780Z,19.63
2022-12-12T03:55:48.586Z,20.07
2022-12-12T03:58:18.844Z,21.13
2022-12-12T04:00:48.102Z,20.13
2022-12-12T04:03:18.785Z,18.43
2022-12-12T04:05:47.737Z,20.37
2022-12-12T04:08:16.925Z,18.30
2022-12-12T04:10:45.925Z,19.03
2022-12-12T04:13:16.632Z,20.07
2022-12-12T04:15:48.712Z,21.17
2022-12-12T04:18:20.095Z,22.80
2022-12-12T04:20:55.545Z,20.37
2022-12-12T04:23:29.405Z,20.10
2022-12-12T04:26:03.183Z,17.57
2022-12-12T04:28:31.417Z,17.87
2022-12-12T04:31:01.578Z,16.37
2022-12-12T04:33:29.894Z,17.33
2022-12-12T04:35:58.308Z,16.50
2022-12-12T04:38:26.783Z,17.20
2022-12-12T04:40:54.932Z,17.33
2022-12-12T04:43:24.865Z,16.30
2022-12-12T04:45:53.939Z,17.70
2022-12-12T04:48:23.144Z,15.67
2022-12-12T04:50:51.632Z,14.40
2022-12-12T04:53:21.221Z,15.13
2022-12-12T04:55:52.044Z,16.10
2022-12-12T04:58:19.218Z,14.00
2022-12-12T05:00:48.108Z,14.73
2022-12-12T05:03:17.994Z,14.80
2022-12-12T05:05:49.258Z,15.70
2022-12-12T05:08:20.501Z,15.40
2022-12-12T05:10:51.280Z,15.27
2022-12-12T05:13:20.702Z,14.93
2022-12-12T05:15:49.435Z,14.60
2022-12-12T05:18:16.775Z,15.20
2022-12-12T05:20:44.924Z,14.80
2022-12-12T05:23:12.001Z,14.20
2022-12-12T05:25:39.089Z,15.00
2022-12-12T05:28:06.400Z,15.23
2022-12-12T05:30:35.213Z,14.60
2022-12-12T05:33:02.344Z,15.80
2022-12-12T05:35:29.430Z,15.40
2022-12-12T05:37:56.531Z,16.33
2022-12-12T05:40:23.639Z,13.97
2022-12-12T05:42:52.216Z,14.03
2022-12-12T05:45:19.382Z,16.53
2022-12-12T05:47:47.775Z,14.97
2022-12-12T05:50:14.903Z,16.17
2022-12-12T05:52:42.036Z,14.83
2022-12-12T05:55:09.303Z,15.30
2022-12-12T05:57:36.409Z,13.90
2022-12-12T06:00:03.883Z,13.20
2022-12-12T06:02:32.208Z,14.13
2022-12-12T06:05:00.725Z,14.20
2022-12-12T06:07:27.866Z,12.93
2022-12-12T06:09:54.950Z,13.50
2022-12-12T06:12:22.106Z,13.10
2022-12-12T06:14:49.224Z,13.57
2022-12-12T06:17:16.326Z,12.67
2022-12-12T06:19:43.615Z,11.90
2022-12-12T06:22:12.054Z,10.27
2022-12-12T06:24:39.160Z,11.60
2022-12-12T06:27:06.262Z,11.40
2022-12-12T06:29:33.331Z,10.50
2022-12-12T06:32:00.421Z,10.33
2022-12-12T06:34:27.514Z,10.50
2022-12-12T06:36:54.662Z,12.27
2022-12-12T06:39:23.079Z,10.47
2022-12-12T06:41:50.181Z,11.60
2022-12-12T06:44:17.251Z,11.30
2022-12-12T06:46:44.457Z,11.80
2022-12-12T06:49:11.588Z,11.33
2022-12-12T06:51:39.229Z,11.07
2022-12-12T06:54:06.341Z,10.47
2022-12-12T06:56:34.796Z,11.57
2022-12-12T06:59:01.872Z,10.90
2022-12-12T07:01:28.980Z,10.67
2022-12-12T07:03:56.109Z,11.70
2022-12-12T07:06:23.479Z,11.13
2022-12-12T07:08:51.218Z,11.40
2022-12-12T07:11:19.639Z,12.40
2022-12-12T07:13:49.132Z,12.10
2022-12-12T07:16:16.483Z,10.80
2022-12-12T07:18:43.655Z,11.83
2022-12-12T07:21:13.424Z,11.20
2022-12-12T07:23:40.666Z,11.37
2022-12-12T07:26:10.354Z,11.13
2022-12-12T07:28:37.793Z,10.63
2022-12-12T07:31:07.827Z,10.60
2022-12-12T07:33:43.001Z,10.07
2022-12-12T07:36:11.359Z,10.10
2022-12-12T07:38:38.481Z,12.23
2022-12-12T07:41:06.315Z,10.10
2022-12-12T07:43:38.529Z,10.60
2022-12-12T07:46:12.399Z,10.83
2022-12-12T07:48:39.547Z,8.97
2022-12-12T07:51:06.620Z,10.50
2022-12-12T07:53:33.933Z,12.43
2022-12-12T07:56:01.046Z,9.27
2022-12-12T07:58:28.143Z,10.80
2022-12-12T08:00:55.236Z,9.60
2022-12-12T08:03:23.727Z,10.10
2022-12-12T08:05:50.803Z,10.90
2022-12-12T08:08:17.943Z,9.97
2022-12-12T08:10:45.085Z,9.80
2022-12-12T08:13:12.243Z,9.70
2022-12-12T08:15:39.403Z,10.37
2022-12-12T08:18:06.563Z,8.60
2022-12-12T08:20:35.022Z,9.57
2022-12-12T08:23:02.124Z,10.53
2022-12-12T08:25:29.220Z,9.60
2022-12-12T08:27:56.341Z,9.57
2022-12-12T08:30:23.467Z,7.83
2022-12-12T08:32:50.573Z,8.73
2022-12-12T08:35:17.665Z,9.30
2022-12-12T08:37:46.127Z,10.40
2022-12-12T08:40:13.212Z,9.57
2022-12-12T08:42:40.294Z,8.87
2022-12-12T08:45:07.871Z,8.67
2022-12-12T08:47:34.985Z,8.53
2022-12-12T08:50:02.074Z,8.30
2022-12-12T08:52:29.197Z,8.70
2022-12-12T08:54:57.627Z,9.00
2022-12-12T08:57:26.196Z,8.17
2022-12-12T08:59:53.394Z,9.20
2022-12-12T09:02:20.535Z,9.60
2022-12-12T09:04:47.738Z,10.07
2022-12-12T09:07:14.825Z,9.77
2022-12-12T09:09:41.922Z,10.70
2022-12-12T09:12:10.355Z,10.50
2022-12-12T09:14:37.467Z,8.70
2022-12-12T09:17:04.597Z,10.00
2022-12-12T09:19:31.677Z,10.30
2022-12-12T09:21:58.783Z,10.63
2022-12-12T09:24:26.044Z,11.77
2022-12-12T09:26:53.139Z,15.00
2022-12-12T09:29:21.581Z,13.90
2022-12-12T09:31:48.773Z,10.37
2022-12-12T09:34:15.936Z,8.90
2022-12-12T09:36:43.178Z,8.23
2022-12-12T09:39:10.272Z,9.97
2022-12-12T09:41:37.391Z,10.07
2022-12-12T09:44:06.861Z,8.90
2022-12-12T09:46:38.364Z,10.03
2022-12-12T09:49:13.209Z,10.13
2022-12-12T09:51:41.118Z,11.30
2022-12-12T09:54:10.470Z,8.37
2022-12-12T09:56:38.584Z,10.17
2022-12-12T09:59:10.528Z,9.37
2022-12-12T10:01:42.934Z,9.83
2022-12-12T10:04:15.038Z,8.97
2022-12-12T10:06:43.606Z,9.27
2022-12-12T10:09:24.588Z,11.40
2022-12-12T10:11:54.150Z,10.27
2022-12-12T10:14:24.214Z,9.40
2022-12-12T10:16:57.713Z,9.60
2022-12-12T10:19:27.272Z,9.90
2022-12-12T10:21:57.468Z,9.90
2022-12-12T10:24:28.695Z,10.13
2022-12-12T10:26:55.823Z,9.10
2022-12-12T10:29:25.433Z,9.70
2022-12-12T10:31:58.687Z,10.00
2022-12-12T10:34:32.310Z,10.37
2022-12-12T10:37:07.366Z,9.47
2022-12-12T10:39:39.193Z,10.63
2022-12-12T10:42:12.601Z,9.87
2022-12-12T10:44:48.752Z,9.10
2022-12-12T10:47:17.224Z,10.17
2022-12-12T10:49:44.332Z,9.40
2022-12-12T10:52:16.279Z,9.93
2022-12-12T10:54:45.590Z,9.70
2022-12-12T10:57:19.849Z,10.00
2022-12-12T10:59:48.469Z,8.70
2022-12-12T11:02:27.503Z,10.30
2022-12-12T11:04:58.709Z,9.50
2022-12-12T11:07:25.950Z,10.60
2022-12-12T11:09:55.685Z,9.73
2022-12-12T11:12:32.622Z,11.07
2022-12-12T11:15:03.487Z,11.60
2022-12-12T11:17:33.906Z,11.13
2022-12-12T11:20:01.847Z,10.57
2022-12-12T11:22:31.050Z,10.90
2022-12-12T11:24:58.190Z,11.17
2022-12-12T11:27:27.343Z,11.60
2022-12-12T11:29:56.232Z,10.57
2022-12-12T11:32:24.935Z,11.50
2022-12-12T11:34:54.440Z,11.60
2022-12-12T11:37:22.328Z,13.73
2022-12-12T11:39:51.346Z,11.90
2022-12-12T11:42:20.606Z,12.23
2022-12-12T11:44:47.737Z,12.17
2022-12-12T11:47:24.531Z,11.63
2022-12-12T11:49:52.512Z,13.27
2022-12-12T11:52:22.674Z,11.20
2022-12-12T11:54:49.820Z,11.90
2022-12-12T11:57:23.564Z,10.27
2022-12-12T12:00:01.014Z,12.73
2022-12-12T12:02:56.059Z,13.27
2022-12-12T12:05:28.653Z,12.33
2022-12-12T12:08:03.844Z,12.50
2022-12-12T12:10:38.597Z,14.07
2022-12-12T12:13:13.884Z,10.90
2022-12-12T12:15:44.732Z,12.10
2022-12-12T12:18:26.679Z,12.00
2022-12-12T12:21:06.641Z,10.47
2022-12-12T12:23:42.534Z,11.20
2022-12-12T12:26:14.192Z,9.87
2022-12-12T12:28:48.937Z,11.60
2022-12-12T12:31:20.205Z,10.10
2022-12-12T12:33:55.519Z,9.93
2022-12-12T12:36:24.460Z,12.50
2022-12-12T12:39:03.231Z,11.40
2022-12-12T12:41:54.847Z,13.03
2022-12-12T12:44:33.654Z,10.63
2022-12-12T12:47:04.541Z,10.20
2022-12-12T12:49:33.631Z,10.17
2022-12-12T12:52:03.376Z,11.67
2022-12-12T12:54:34.078Z,10.47
2022-12-12T12:57:03.400Z,10.90
2022-12-12T12:59:33.557Z,12.37
2022-12-12T13:02:02.302Z,11.63
2022-12-12T13:04:31.658Z,11.83
2022-12-12T13:07:00.785Z,11.93
2022-12-12T13:09:32.596Z,10.37
2022-12-12T13:12:03.876Z,11.73
2022-12-12T13:14:38.133Z,11.90
2022-12-12T13:17:06.024Z,11.20
2022-12-12T13:19:35.285Z,11.00
2022-12-12T13:22:05.087Z,10.80
2022-12-12T13:24:34.806Z,12.97
2022-12-12T13:27:05.562Z,12.17
2022-12-12T13:29:34.638Z,11.47
2022-12-12T13:32:12.595Z,10.97
2022-12-12T13:34:41.744Z,11.80
2022-12-12T13:37:09.051Z,11.33
2022-12-12T13:39:37.346Z,10.37
2022-12-12T13:42:06.663Z,11.03
2022-12-12T13:44:38.975Z,10.93
2022-12-12T13:47:11.663Z,11.80
2022-12-12T13:49:43.301Z,10.90
2022-12-12T13:52:27.571Z,12.47
2022-12-12T13:54:56.008Z,12.03
2022-12-12T13:57:25.914Z,10.27
2022-12-12T14:00:10.755Z,11.13
2022-12-12T14:02:41.579Z,11.47
2022-12-12T14:05:10.209Z,12.97
2022-12-12T14:07:37.938Z,10.23
2022-12-12T14:10:16.973Z,10.90
2022-12-12T14:12:45.505Z,10.90
2022-12-12T14:15:19.744Z,12.87
2022-12-12T14:17:52.702Z,10.93
2022-12-12T14:20:28.374Z,11.20
2022-12-12T14:23:22.654Z,11.90
2022-12-12T14:25:49.748Z,12.20
2022-12-12T14:28:19.625Z,11.10
2022-12-12T14:31:13.703Z,11.43
2022-12-12T14:33:57.255Z,12.70
2022-12-12T14:36:43.194Z,11.67
2022-12-12T14:39:17.494Z,10.80
2022-12-12T14:41:46.403Z,11.77
2022-12-12T14:44:37.711Z,12.27
2022-12-12T14:47:07.497Z,14.17
2022-12-12T14:49:34.693Z,12.03
2022-12-12T14:52:01.786Z,12.47
2022-12-12T14:54:28.904Z,10.30
2022-12-12T14:56:56.975Z,11.90
2022-12-12T14:59:28.084Z,13.13
2022-12-12T15:01:57.626Z,10.90
2022-12-12T15:04:26.340Z,13.10
2022-12-12T15:06:53.707Z,11.50
2022-12-12T15:09:24.111Z,13.87
2022-12-12T15:11:51.271Z,13.50
2022-12-12T15:14:19.538Z,13.17
2022-12-12T15:16:49.781Z,11.77
2022-12-12T15:19:18.455Z,13.00
2022-12-12T15:21:46.391Z,11.83
2022-12-12T15:24:20.781Z,12.40
2022-12-12T15:26:48.647Z,11.10
2022-12-12T15:29:17.417Z,12.13
2022-12-12T15:31:44.803Z,12.00
2022-12-12T15:34:26.909Z,11.83
2022-12-12T15:36:55.408Z,11.40
2022-12-12T15:39:22.573Z,12.53
2022-12-12T15:41:50.046Z,12.97
2022-12-12T15:44:18.290Z,12.03
2022-12-12T15:46:46.934Z,14.90
2022-12-12T15:49:28.944Z,15.20
2022-12-12T15:51:57.442Z,14.50
2022-12-12T15:54:24.600Z,15.37
2022-12-12T15:56:51.696Z,15.13
2022-12-12T15:59:26.199Z,15.60
2022-12-12T16:01:53.418Z,16.33
2022-12-12T16:04:24.474Z,15.73
2022-12-12T16:06:51.617Z,15.93
2022-12-12T16:09:21.655Z,16.20
2022-12-12T16:11:49.566Z,16.10
2022-12-12T16:14:27.774Z,16.77
2022-12-12T16:16:56.607Z,15.93
2022-12-12T16:19:40.994Z,17.63
2022-12-12T16:22:13.344Z,17.70
2022-12-12T16:24:47.374Z,15.07
2022-12-12T16:27:14.574Z,17.03
2022-12-12T16:29:41.676Z,16.83
2022-12-12T16:32:10.494Z,18.40
2022-12-12T16:34:37.575Z,18.70
2022-12-12T16:37:04.640Z,16.53
2022-12-12T16:39:31.729Z,18.30
2022-12-12T16:42:00.156Z,17.40
2022-12-12T16:44:27.237Z,16.07
2022-12-12T16:46:54.349Z,17.33
2022-12-12T16:49:21.788Z,18.40
2022-12-12T16:51:48.894Z,18.03
2022-12-12T16:54:16.795Z,18.90
2022-12-12T16:56:44.052Z,16.50
2022-12-12T16:59:12.494Z,17.97
2022-12-12T17:01:40.588Z,17.53
2022-12-12T17:04:07.815Z,19.27
2022-12-12T17:06:34.954Z,18.00
2022-12-12T17:09:02.016Z,18.80
2022-12-12T17:11:29.114Z,21.00
2022-12-12T17:13:56.217Z,18.40
2022-12-12T17:16:27.934Z,19.77
2022-12-12T17:18:55.436Z,18.47
2022-12-12T17:21:22.534Z,19.63
2022-12-12T17:23:49.607Z,19.03
2022-12-12T17:26:16.722Z,23.93
2022-12-12T17:28:43.816Z,18.90
2022-12-12T17:31:10.928Z,21.93
2022-12-12T17:33:49.914Z,19.27
2022-12-12T17:36:18.082Z,19.43
2022-12-12T17:38:47.512Z,21.10
2022-12-12T17:41:14.615Z,20.70
2022-12-12T17:43:41.989Z,21.50
2022-12-12T17:46:10.642Z,19.33
2022-12-12T17:48:37.789Z,21.77
2022-12-12T17:51:07.006Z,19.60
2022-12-12T17:53:35.181Z,22.60
2022-12-12T17:56:07.816Z,21.80
2022-12-12T17:58:35.842Z,20.50
2022-12-12T18:01:09.487Z,23.10
2022-12-12T18:03:36.649Z,22.30
2022-12-12T18:06:03.873Z,23.23
2022-12-12T18:08:32.482Z,21.90
2022-12-12T18:10:59.661Z,20.57
2022-12-12T18:13:26.797Z,22.30
2022-12-12T18:15:54.490Z,23.57
2022-12-12T18:18:21.575Z,21.07
2022-12-12T18:20:48.649Z,21.70
2022-12-12T18:23:15.766Z,23.67
2022-12-12T18:25:44.189Z,23.00
2022-12-12T18:28:11.312Z,24.50
2022-12-12T18:30:38.544Z,23.00
2022-12-12T18:33:05.662Z,22.07
2022-12-12T18:35:32.761Z,22.77
2022-12-12T18:37:59.852Z,21.27
2022-12-12T18:40:26.986Z,21.43
2022-12-12T18:42:55.684Z,22.00
2022-12-12T18:45:22.760Z,21.63
2022-12-12T18:47:49.884Z,23.27
2022-12-12T18:50:17.178Z,21.27
2022-12-12T18:52:44.319Z,21.27
2022-12-12T18:55:11.413Z,19.87
2022-12-12T18:57:38.522Z,19.17
2022-12-12T19:00:07.958Z,19.27
2022-12-12T19:02:35.132Z,21.13
2022-12-12T19:05:02.213Z,21.73
2022-12-12T19:07:29.309Z,18.23
2022-12-12T19:09:56.419Z,21.73
2022-12-12T19:12:23.686Z,21.70
2022-12-12T19:17:39.225Z,19.97
2022-12-12T19:20:06.762Z,20.27
2022-12-12T19:22:49.512Z,20.00
2022-12-12T19:25:17.518Z,20.30
2022-12-12T19:27:44.632Z,21.93
2022-12-12T19:30:13.465Z,20.77
2022-12-12T19:32:43.265Z,21.03
2022-12-12T19:35:10.349Z,24.30
2022-12-12T19:37:37.465Z,19.10
2022-12-12T19:40:04.811Z,21.13
2022-12-12T19:42:31.923Z,20.97
2022-12-12T19:44:58.998Z,20.57
2022-12-12T19:47:26.395Z,19.50
2022-12-12T19:49:54.835Z,20.90
2022-12-12T19:52:21.896Z,18.97
2022-12-12T19:54:49.005Z,22.33
2022-12-12T19:57:16.107Z,17.77
2022-12-12T19:59:43.216Z,23.47
2022-12-12T20:02:10.904Z,20.37
2022-12-12T20:04:38.071Z,20.73
2022-12-12T20:07:06.527Z,20.47
2022-12-12T20:09:35.245Z,19.47
2022-12-12T20:12:02.394Z,21.37
2022-12-12T20:14:30.571Z,19.17
2022-12-12T20:16:58.037Z,20.33
2022-12-12T20:19:27.452Z,18.37
2022-12-12T20:22:03.042Z,22.40
2022-12-12T20:24:32.719Z,19.00
2022-12-12T20:27:00.254Z,20.27
2022-12-12T20:29:27.510Z,19.83
2022-12-12T20:31:54.660Z,19.70
2022-12-12T20:34:21.950Z,20.00
2022-12-12T20:36:49.276Z,19.60
2022-12-12T20:39:17.751Z,19.23
2022-12-12T20:41:47.075Z,20.03
2022-12-12T20:44:14.629Z,18.80
2022-12-12T20:46:43.672Z,21.13
2022-12-12T20:49:13.048Z,21.87
2022-12-12T20:51:57.357Z,20.63
2022-12-12T20:54:25.467Z,21.10
2022-12-12T20:56:54.437Z,23.00
2022-12-12T20:59:21.732Z,20.43
2022-12-12T21:01:48.884Z,20.73
2022-12-12T21:04:16.134Z,21.10
2022-12-12T21:06:44.836Z,19.00
2022-12-12T21:09:17.685Z,19.93
2022-12-12T21:11:48.344Z,21.40
2022-12-12T21:14:16.762Z,20.67
2022-12-12T21:16:43.937Z,19.87
2022-12-12T21:19:12.182Z,21.50
2022-12-12T21:21:40.201Z,21.37
2022-12-12T21:24:07.594Z,21.80
2022-12-12T21:26:35.039Z,19.33
2022-12-12T21:29:02.784Z,20.50
2022-12-12T21:31:33.186Z,20.50
2022-12-12T21:34:00.680Z,20.87
2022-12-12T21:36:28.467Z,21.63
2022-12-12T21:38:56.860Z,20.90
2022-12-12T21:41:24.353Z,18.87
2022-12-12T21:43:52.604Z,19.13
2022-12-12T21:46:20.731Z,22.17
2022-12-12T21:48:49.683Z,23.47
2022-12-12T21:51:17.106Z,20.70
2022-12-12T21:53:44.265Z,21.80
2022-12-12T21:56:12.487Z,19.87
2022-12-12T21:58:40.801Z,17.80
2022-12-12T22:01:08.558Z,20.63
2022-12-12T22:03:36.009Z,20.53
2022-12-12T22:06:10.577Z,20.13
2022-12-12T22:08:37.714Z,21.30
2022-12-12T22:11:04.942Z,18.53
2022-12-12T22:13:38.127Z,20.50
2022-12-12T22:16:07.849Z,21.80
2022-12-12T22:18:35.153Z,20.00
2022-12-12T22:21:05.673Z,21.50
2022-12-12T22:23:34.461Z,19.70
2022-12-12T22:26:01.565Z,21.27
2022-12-12T22:28:28.673Z,20.97
2022-12-12T22:30:55.865Z,20.60
2022-12-12T22:33:22.959Z,19.00
2022-12-12T22:35:50.058Z,19.20
2022-12-12T22:38:17.114Z,21.73
2022-12-12T22:40:54.401Z,22.30
2022-12-12T22:43:21.513Z,22.67
2022-12-12T22:45:48.621Z,21.23
2022-12-12T22:48:15.743Z,20.50
2022-12-12T22:50:42.858Z,19.97
2022-12-12T22:53:09.947Z,20.20
2022-12-12T22:55:37.123Z,20.73
2022-12-12T22:58:05.548Z,20.23
2022-12-12T23:00:32.672Z,19.10
2022-12-12T23:02:59.743Z,22.00
2022-12-12T23:05:26.860Z,22.33
2022-12-12T23:07:54.059Z,21.47
2022-12-12T23:10:21.147Z,21.63
2022-12-12T23:12:48.282Z,21.83
2022-12-12T23:15:17.079Z,22.27
2022-12-12T23:17:44.267Z,22.40
2022-12-12T23:20:11.543Z,17.10
2022-12-12T23:22:38.629Z,18.53
2022-12-12T23:25:06.120Z,18.93
2022-12-12T23:27:33.199Z,22.70
2022-12-12T23:30:00.275Z,19.37
2022-12-12T23:32:28.744Z,18.93
2022-12-12T23:34:55.849Z,19.17
2022-12-12T23:37:22.951Z,21.40
2022-12-12T23:39:50.539Z,19.20
2022-12-12T23:42:17.628Z,21.17
2022-12-12T23:44:44.725Z,20.53
2022-12-12T23:47:11.819Z,20.33
2022-12-12T23:49:40.881Z,20.53
2022-12-12T23:52:07.954Z,20.80
2022-12-12T23:54:35.223Z,22.67
2022-12-12T23:57:02.542Z,21.93
2022-12-12T23:59:29.811Z,24.70
